sensor_id;sensor_type;location;lat;lon;timestamp;P1;P2;P0
77515;PMS5003;66627;29.424;-98.496;2023-02-26T00:01:50;18;17;
77515;PMS5003;66627;29.424;-98.496;2023-02-26T00:04:16;16;16;
77515;PMS5003;66627;29.424;-98.496;2023-02-26T00:06:42;29;26;
77515;PMS5003;66627;29.424;-98.496;2023-02-26T00:09:08;25;21;
77515;PMS5003;66627;29.424;-98.496;2023-02-26T00:11:33;22;20;
77515;PMS5003;66627;29.424;-98.496;2023-02-26T00:13:59;20;19;
77515;PMS5003;66627;29.424;-98.496;2023-02-26T00:16:25;25;21;
77515;PMS5003;66627;29.424;-98.496;2023-02-26T00:18:49;17;17;
77515;PMS5003;66627;29.424;-98.496;2023-02-26T00:21:15;23;21;
77515;PMS5003;66627;29.424;-98.496;2023-02-26T00:23:40;27;22;
77515;PMS5003;66627;29.424;-98.496;2023-02-26T00:26:06;20;17;
77515;PMS5003;66627;29.424;-98.496;2023-02-26T00:28:32;20;18;
77515;PMS5003;66627;29.424;-98.496;2023-02-26T00:30:57;19;17;
77515;PMS5003;66627;29.424;-98.496;2023-02-26T00:33:23;25;23;
77515;PMS5003;66627;29.424;-98.496;2023-02-26T00:35:48;20;19;
77515;PMS5003;66627;29.424;-98.496;2023-02-26T00:38:14;22;20;
77515;PMS5003;66627;29.424;-98.496;2023-02-26T00:40:40;20;18;
77515;PMS5003;66627;29.424;-98.496;2023-02-26T00:43:05;22;17;
77515;PMS5003;66627;29.424;-98.496;2023-02-26T00:45:31;21;20;
77515;PMS5003;66627;29.424;-98.496;2023-02-26T00:48:01;22;20;
77515;PMS5003;66627;29.424;-98.496;2023-02-26T00:50:22;26;22;
77515;PMS5003;66627;29.424;-98.496;2023-02-26T00:52:49;24;22;
77515;PMS5003;66627;29.424;-98.496;2023-02-26T00:55:11;19;18;
77515;PMS5003;66627;29.424;-98.496;2023-02-26T00:57:36;19;18;
77515;PMS5003;66627;29.424;-98.496;2023-02-26T01:00:02;16;15;
77515;PMS5003;66627;29.424;-98.496;2023-02-26T01:02:27;21;16;
77515;PMS5003;66627;29.424;-98.496;2023-02-26T01:04:53;20;20;
77515;PMS5003;66627;29.424;-98.496;2023-02-26T01:07:19;21;18;
77515;PMS5003;66627;29.424;-98.496;2023-02-26T01:09:44;22;19;
77515;PMS5003;66627;29.424;-98.496;2023-02-26T01:12:10;23;20;
77515;PMS5003;66627;29.424;-98.496;2023-02-26T01:14:34;22;20;
77515;PMS5003;66627;29.424;-98.496;2023-02-26T01:17:01;27;23;
77515;PMS5003;66627;29.424;-98.496;2023-02-26T01:19:28;29;26;
77515;PMS5003;66627;29.424;-98.496;2023-02-26T01:21:53;21;21;
77515;PMS5003;66627;29.424;-98.496;2023-02-26T01:24:16;22;21;
77515;PMS5003;66627;29.424;-98.496;2023-02-26T01:26:42;26;24;
77515;PMS5003;66627;29.424;-98.496;2023-02-26T01:29:07;29;22;
77515;PMS5003;66627;29.424;-98.496;2023-02-26T01:31:33;19;18;
77515;PMS5003;66627;29.424;-98.496;2023-02-26T01:33:58;25;20;
77515;PMS5003;66627;29.424;-98.496;2023-02-26T01:36:23;25;22;
77515;PMS5003;66627;29.424;-98.496;2023-02-26T01:38:51;23;20;
77515;PMS5003;66627;29.424;-98.496;2023-02-26T01:41:22;27;22;
77515;PMS5003;66627;29.424;-98.496;2023-02-26T01:43:42;27;24;
77515;PMS5003;66627;29.424;-98.496;2023-02-26T01:46:05;24;21;
77515;PMS5003;66627;29.424;-98.496;2023-02-26T01:48:32;23;23;
77515;PMS5003;66627;29.424;-98.496;2023-02-26T01:51:00;29;25;
77515;PMS5003;66627;29.424;-98.496;2023-02-26T01:53:21;25;21;
77515;PMS5003;66627;29.424;-98.496;2023-02-26T01:55:47;24;23;
77515;PMS5003;66627;29.424;-98.496;2023-02-26T01:58:11;25;22;
77515;PMS5003;66627;29.424;-98.496;2023-02-26T02:00:37;21;19;
77515;PMS5003;66627;29.424;-98.496;2023-02-26T02:03:02;24;22;
77515;PMS5003;66627;29.424;-98.496;2023-02-26T02:05:29;24;21;
77515;PMS5003;66627;29.424;-98.496;2023-02-26T02:07:53;23;21;
77515;PMS5003;66627;29.424;-98.496;2023-02-26T02:10:19;27;24;
77515;PMS5003;66627;29.424;-98.496;2023-02-26T02:12:45;21;21;
77515;PMS5003;66627;29.424;-98.496;2023-02-26T02:15:11;24;22;
77515;PMS5003;66627;29.424;-98.496;2023-02-26T02:17:37;29;24;
77515;PMS5003;66627;29.424;-98.496;2023-02-26T02:20:07;21;18;
77515;PMS5003;66627;29.424;-98.496;2023-02-26T02:24:53;25;23;
77515;PMS5003;66627;29.424;-98.496;2023-02-26T02:27:17;23;23;
77515;PMS5003;66627;29.424;-98.496;2023-02-26T02:29:53;23;22;
77515;PMS5003;66627;29.424;-98.496;2023-02-26T02:32:07;30;29;
77515;PMS5003;66627;29.424;-98.496;2023-02-26T02:34:33;23;21;
77515;PMS5003;66627;29.424;-98.496;2023-02-26T02:36:59;24;23;
77515;PMS5003;66627;29.424;-98.496;2023-02-26T02:39:25;21;20;
77515;PMS5003;66627;29.424;-98.496;2023-02-26T02:41:51;21;21;
77515;PMS5003;66627;29.424;-98.496;2023-02-26T02:44:15;27;24;
77515;PMS5003;66627;29.424;-98.496;2023-02-26T02:46:40;20;20;
77515;PMS5003;66627;29.424;-98.496;2023-02-26T02:49:06;20;18;
77515;PMS5003;66627;29.424;-98.496;2023-02-26T02:51:31;23;23;
77515;PMS5003;66627;29.424;-98.496;2023-02-26T02:53:58;21;19;
77515;PMS5003;66627;29.424;-98.496;2023-02-26T02:56:22;24;22;
77515;PMS5003;66627;29.424;-98.496;2023-02-26T02:58:49;29;27;
77515;PMS5003;66627;29.424;-98.496;2023-02-26T03:01:13;24;21;
77515;PMS5003;66627;29.424;-98.496;2023-02-26T03:03:40;28;26;
77515;PMS5003;66627;29.424;-98.496;2023-02-26T03:06:03;23;20;
77515;PMS5003;66627;29.424;-98.496;2023-02-26T03:08:30;22;20;
77515;PMS5003;66627;29.424;-98.496;2023-02-26T03:10:54;23;20;
77515;PMS5003;66627;29.424;-98.496;2023-02-26T03:13:20;27;24;
77515;PMS5003;66627;29.424;-98.496;2023-02-26T03:15:46;21;20;
77515;PMS5003;66627;29.424;-98.496;2023-02-26T03:18:13;22;20;
77515;PMS5003;66627;29.424;-98.496;2023-02-26T03:20:37;26;23;
77515;PMS5003;66627;29.424;-98.496;2023-02-26T03:23:03;25;21;
77515;PMS5003;66627;29.424;-98.496;2023-02-26T03:25:28;26;24;
77515;PMS5003;66627;29.424;-98.496;2023-02-26T03:27:54;27;24;
77515;PMS5003;66627;29.424;-98.496;2023-02-26T03:30:18;25;21;
77515;PMS5003;66627;29.424;-98.496;2023-02-26T03:32:44;22;20;
77515;PMS5003;66627;29.424;-98.496;2023-02-26T03:35:08;24;22;
77515;PMS5003;66627;29.424;-98.496;2023-02-26T03:37:34;24;24;
77515;PMS5003;66627;29.424;-98.496;2023-02-26T03:40:00;23;21;
77515;PMS5003;66627;29.424;-98.496;2023-02-26T03:42:25;24;20;
77515;PMS5003;66627;29.424;-98.496;2023-02-26T03:44:50;21;20;
77515;PMS5003;66627;29.424;-98.496;2023-02-26T03:47:15;26;26;
77515;PMS5003;66627;29.424;-98.496;2023-02-26T03:49:41;23;22;
77515;PMS5003;66627;29.424;-98.496;2023-02-26T03:52:05;21;20;
77515;PMS5003;66627;29.424;-98.496;2023-02-26T03:54:32;27;24;
77515;PMS5003;66627;29.424;-98.496;2023-02-26T03:56:55;23;21;
77515;PMS5003;66627;29.424;-98.496;2023-02-26T03:59:21;22;22;
77515;PMS5003;66627;29.424;-98.496;2023-02-26T04:01:47;24;23;
77515;PMS5003;66627;29.424;-98.496;2023-02-26T04:04:13;23;22;
77515;PMS5003;66627;29.424;-98.496;2023-02-26T04:06:37;23;21;
77515;PMS5003;66627;29.424;-98.496;2023-02-26T04:09:02;28;26;
77515;PMS5003;66627;29.424;-98.496;2023-02-26T04:11:28;31;28;
77515;PMS5003;66627;29.424;-98.496;2023-02-26T04:13:54;31;26;
77515;PMS5003;66627;29.424;-98.496;2023-02-26T04:16:19;26;25;
77515;PMS5003;66627;29.424;-98.496;2023-02-26T04:18:44;27;24;
77515;PMS5003;66627;29.424;-98.496;2023-02-26T04:21:10;25;24;
77515;PMS5003;66627;29.424;-98.496;2023-02-26T04:23:35;26;25;
77515;PMS5003;66627;29.424;-98.496;2023-02-26T04:26:01;25;22;
77515;PMS5003;66627;29.424;-98.496;2023-02-26T04:28:26;25;23;
77515;PMS5003;66627;29.424;-98.496;2023-02-26T04:30:52;29;25;
77515;PMS5003;66627;29.424;-98.496;2023-02-26T04:33:16;27;23;
77515;PMS5003;66627;29.424;-98.496;2023-02-26T04:35:42;26;23;
77515;PMS5003;66627;29.424;-98.496;2023-02-26T04:38:08;25;23;
77515;PMS5003;66627;29.424;-98.496;2023-02-26T04:40:33;24;22;
77515;PMS5003;66627;29.424;-98.496;2023-02-26T04:42:58;23;23;
77515;PMS5003;66627;29.424;-98.496;2023-02-26T04:45:25;23;21;
77515;PMS5003;66627;29.424;-98.496;2023-02-26T04:47:49;26;24;
77515;PMS5003;66627;29.424;-98.496;2023-02-26T04:50:15;24;23;
77515;PMS5003;66627;29.424;-98.496;2023-02-26T04:52:41;24;23;
77515;PMS5003;66627;29.424;-98.496;2023-02-26T04:55:06;32;32;
77515;PMS5003;66627;29.424;-98.496;2023-02-26T04:57:31;24;24;
77515;PMS5003;66627;29.424;-98.496;2023-02-26T04:59:57;26;26;
77515;PMS5003;66627;29.424;-98.496;2023-02-26T05:02:21;29;27;
77515;PMS5003;66627;29.424;-98.496;2023-02-26T05:04:47;29;27;
77515;PMS5003;66627;29.424;-98.496;2023-02-26T05:07:13;26;23;
77515;PMS5003;66627;29.424;-98.496;2023-02-26T05:09:38;33;32;
77515;PMS5003;66627;29.424;-98.496;2023-02-26T05:12:04;34;28;
77515;PMS5003;66627;29.424;-98.496;2023-02-26T05:14:29;31;31;
77515;PMS5003;66627;29.424;-98.496;2023-02-26T05:16:54;28;25;
77515;PMS5003;66627;29.424;-98.496;2023-02-26T05:19:20;33;27;
77515;PMS5003;66627;29.424;-98.496;2023-02-26T05:21:45;29;26;
77515;PMS5003;66627;29.424;-98.496;2023-02-26T05:24:11;34;31;
77515;PMS5003;66627;29.424;-98.496;2023-02-26T05:26:36;27;26;
77515;PMS5003;66627;29.424;-98.496;2023-02-26T05:29:02;26;26;
77515;PMS5003;66627;29.424;-98.496;2023-02-26T05:31:27;30;28;
77515;PMS5003;66627;29.424;-98.496;2023-02-26T05:33:53;33;31;
77515;PMS5003;66627;29.424;-98.496;2023-02-26T05:36:18;34;30;
77515;PMS5003;66627;29.424;-98.496;2023-02-26T05:38:44;30;26;
77515;PMS5003;66627;29.424;-98.496;2023-02-26T05:41:09;31;28;
77515;PMS5003;66627;29.424;-98.496;2023-02-26T05:43:35;25;25;
77515;PMS5003;66627;29.424;-98.496;2023-02-26T05:46:00;25;24;
77515;PMS5003;66627;29.424;-98.496;2023-02-26T05:48:25;28;27;
77515;PMS5003;66627;29.424;-98.496;2023-02-26T05:50:51;26;25;
77515;PMS5003;66627;29.424;-98.496;2023-02-26T05:53:17;31;30;
77515;PMS5003;66627;29.424;-98.496;2023-02-26T05:58:08;25;24;
77515;PMS5003;66627;29.424;-98.496;2023-02-26T06:00:33;35;32;
77515;PMS5003;66627;29.424;-98.496;2023-02-26T06:02:59;29;27;
77515;PMS5003;66627;29.424;-98.496;2023-02-26T06:05:24;33;33;
77515;PMS5003;66627;29.424;-98.496;2023-02-26T06:07:50;26;26;
77515;PMS5003;66627;29.424;-98.496;2023-02-26T06:10:16;32;32;
77515;PMS5003;66627;29.424;-98.496;2023-02-26T06:12:41;33;31;
77515;PMS5003;66627;29.424;-98.496;2023-02-26T06:15:08;39;31;
77515;PMS5003;66627;29.424;-98.496;2023-02-26T06:17:31;29;25;
77515;PMS5003;66627;29.424;-98.496;2023-02-26T06:19:57;34;32;
77515;PMS5003;66627;29.424;-98.496;2023-02-26T06:22:22;33;27;
77515;PMS5003;66627;29.424;-98.496;2023-02-26T06:24:47;31;30;
77515;PMS5003;66627;29.424;-98.496;2023-02-26T06:27:13;34;31;
77515;PMS5003;66627;29.424;-98.496;2023-02-26T06:29:38;37;35;
77515;PMS5003;66627;29.424;-98.496;2023-02-26T06:32:04;36;31;
77515;PMS5003;66627;29.424;-98.496;2023-02-26T06:34:29;38;35;
77515;PMS5003;66627;29.424;-98.496;2023-02-26T06:36:54;37;32;
77515;PMS5003;66627;29.424;-98.496;2023-02-26T06:39:20;42;35;
77515;PMS5003;66627;29.424;-98.496;2023-02-26T06:41:45;41;40;
77515;PMS5003;66627;29.424;-98.496;2023-02-26T06:44:11;37;34;
77515;PMS5003;66627;29.424;-98.496;2023-02-26T06:46:36;36;33;
77515;PMS5003;66627;29.424;-98.496;2023-02-26T06:49:02;39;38;
77515;PMS5003;66627;29.424;-98.496;2023-02-26T06:51:27;45;41;
77515;PMS5003;66627;29.424;-98.496;2023-02-26T06:53:52;40;36;
77515;PMS5003;66627;29.424;-98.496;2023-02-26T06:56:18;37;35;
77515;PMS5003;66627;29.424;-98.496;2023-02-26T06:58:43;32;31;
77515;PMS5003;66627;29.424;-98.496;2023-02-26T07:01:09;36;35;
77515;PMS5003;66627;29.424;-98.496;2023-02-26T07:03:35;34;34;
77515;PMS5003;66627;29.424;-98.496;2023-02-26T07:06:00;43;40;
77515;PMS5003;66627;29.424;-98.496;2023-02-26T07:08:26;42;41;
77515;PMS5003;66627;29.424;-98.496;2023-02-26T07:10:51;38;38;
77515;PMS5003;66627;29.424;-98.496;2023-02-26T07:13:16;47;42;
77515;PMS5003;66627;29.424;-98.496;2023-02-26T07:15:41;37;35;
77515;PMS5003;66627;29.424;-98.496;2023-02-26T07:18:07;38;37;
77515;PMS5003;66627;29.424;-98.496;2023-02-26T07:20:32;42;40;
77515;PMS5003;66627;29.424;-98.496;2023-02-26T07:22:57;41;38;
77515;PMS5003;66627;29.424;-98.496;2023-02-26T07:25:22;48;40;
77515;PMS5003;66627;29.424;-98.496;2023-02-26T07:27:48;46;38;
77515;PMS5003;66627;29.424;-98.496;2023-02-26T07:30:13;36;33;
77515;PMS5003;66627;29.424;-98.496;2023-02-26T07:32:39;39;36;
77515;PMS5003;66627;29.424;-98.496;2023-02-26T07:35:04;37;36;
77515;PMS5003;66627;29.424;-98.496;2023-02-26T07:37:30;43;36;
77515;PMS5003;66627;29.424;-98.496;2023-02-26T07:39:55;43;38;
77515;PMS5003;66627;29.424;-98.496;2023-02-26T07:42:22;43;37;
77515;PMS5003;66627;29.424;-98.496;2023-02-26T07:44:47;46;42;
77515;PMS5003;66627;29.424;-98.496;2023-02-26T07:47:12;38;36;
77515;PMS5003;66627;29.424;-98.496;2023-02-26T07:49:38;38;38;
77515;PMS5003;66627;29.424;-98.496;2023-02-26T07:52:03;39;38;
77515;PMS5003;66627;29.424;-98.496;2023-02-26T07:54:29;42;37;
77515;PMS5003;66627;29.424;-98.496;2023-02-26T07:56:54;39;35;
77515;PMS5003;66627;29.424;-98.496;2023-02-26T07:59:19;41;39;
77515;PMS5003;66627;29.424;-98.496;2023-02-26T08:01:44;42;38;
77515;PMS5003;66627;29.424;-98.496;2023-02-26T08:04:09;43;40;
77515;PMS5003;66627;29.424;-98.496;2023-02-26T08:06:35;38;37;
77515;PMS5003;66627;29.424;-98.496;2023-02-26T08:09:00;45;38;
77515;PMS5003;66627;29.424;-98.496;2023-02-26T08:11:25;46;41;
77515;PMS5003;66627;29.424;-98.496;2023-02-26T08:13:51;47;40;
77515;PMS5003;66627;29.424;-98.496;2023-02-26T08:16:16;42;41;
77515;PMS5003;66627;29.424;-98.496;2023-02-26T08:18:42;41;35;
77515;PMS5003;66627;29.424;-98.496;2023-02-26T08:21:07;46;42;
77515;PMS5003;66627;29.424;-98.496;2023-02-26T08:23:32;43;39;
77515;PMS5003;66627;29.424;-98.496;2023-02-26T08:25:59;41;38;
77515;PMS5003;66627;29.424;-98.496;2023-02-26T08:28:23;39;34;
77515;PMS5003;66627;29.424;-98.496;2023-02-26T08:30:51;44;42;
77515;PMS5003;66627;29.424;-98.496;2023-02-26T08:33:15;38;36;
77515;PMS5003;66627;29.424;-98.496;2023-02-26T08:35:40;41;39;
77515;PMS5003;66627;29.424;-98.496;2023-02-26T08:38:06;41;37;
77515;PMS5003;66627;29.424;-98.496;2023-02-26T08:40:31;39;36;
77515;PMS5003;66627;29.424;-98.496;2023-02-26T08:42:56;44;42;
77515;PMS5003;66627;29.424;-98.496;2023-02-26T08:45:22;46;37;
77515;PMS5003;66627;29.424;-98.496;2023-02-26T08:47:48;39;38;
77515;PMS5003;66627;29.424;-98.496;2023-02-26T08:50:13;44;39;
77515;PMS5003;66627;29.424;-98.496;2023-02-26T08:52:38;43;40;
77515;PMS5003;66627;29.424;-98.496;2023-02-26T08:55:04;42;39;
77515;PMS5003;66627;29.424;-98.496;2023-02-26T08:57:29;44;35;
77515;PMS5003;66627;29.424;-98.496;2023-02-26T08:59:55;41;37;
77515;PMS5003;66627;29.424;-98.496;2023-02-26T09:02:21;41;37;
77515;PMS5003;66627;29.424;-98.496;2023-02-26T09:04:46;35;33;
77515;PMS5003;66627;29.424;-98.496;2023-02-26T09:07:11;42;39;
77515;PMS5003;66627;29.424;-98.496;2023-02-26T09:09:37;45;38;
77515;PMS5003;66627;29.424;-98.496;2023-02-26T09:12:03;39;34;
77515;PMS5003;66627;29.424;-98.496;2023-02-26T09:14:28;42;38;
77515;PMS5003;66627;29.424;-98.496;2023-02-26T09:16:53;40;40;
77515;PMS5003;66627;29.424;-98.496;2023-02-26T09:19:18;37;35;
77515;PMS5003;66627;29.424;-98.496;2023-02-26T09:21:43;47;41;
77515;PMS5003;66627;29.424;-98.496;2023-02-26T09:24:09;41;38;
77515;PMS5003;66627;29.424;-98.496;2023-02-26T09:26:35;45;37;
77515;PMS5003;66627;29.424;-98.496;2023-02-26T09:29:04;41;38;
77515;PMS5003;66627;29.424;-98.496;2023-02-26T09:31:25;47;42;
77515;PMS5003;66627;29.424;-98.496;2023-02-26T09:33:51;48;40;
77515;PMS5003;66627;29.424;-98.496;2023-02-26T09:36:16;51;41;
77515;PMS5003;66627;29.424;-98.496;2023-02-26T09:38:41;54;46;
77515;PMS5003;66627;29.424;-98.496;2023-02-26T09:41:07;47;40;
77515;PMS5003;66627;29.424;-98.496;2023-02-26T09:43:47;35;35;
77515;PMS5003;66627;29.424;-98.496;2023-02-26T09:45:58;46;42;
77515;PMS5003;66627;29.424;-98.496;2023-02-26T09:48:22;45;42;
77515;PMS5003;66627;29.424;-98.496;2023-02-26T09:50:48;47;41;
77515;PMS5003;66627;29.424;-98.496;2023-02-26T09:53:14;45;42;
77515;PMS5003;66627;29.424;-98.496;2023-02-26T09:55:38;49;37;
77515;PMS5003;66627;29.424;-98.496;2023-02-26T09:58:04;49;41;
77515;PMS5003;66627;29.424;-98.496;2023-02-26T10:00:31;47;43;
77515;PMS5003;66627;29.424;-98.496;2023-02-26T10:02:57;51;41;
77515;PMS5003;66627;29.424;-98.496;2023-02-26T10:05:20;42;41;
77515;PMS5003;66627;29.424;-98.496;2023-02-26T10:07:45;45;41;
77515;PMS5003;66627;29.424;-98.496;2023-02-26T10:10:13;43;40;
77515;PMS5003;66627;29.424;-98.496;2023-02-26T10:12:35;45;44;
77515;PMS5003;66627;29.424;-98.496;2023-02-26T10:15:00;50;45;
77515;PMS5003;66627;29.424;-98.496;2023-02-26T10:17:27;50;42;
77515;PMS5003;66627;29.424;-98.496;2023-02-26T10:19:51;50;45;
77515;PMS5003;66627;29.424;-98.496;2023-02-26T10:22:19;46;41;
77515;PMS5003;66627;29.424;-98.496;2023-02-26T10:24:43;47;42;
77515;PMS5003;66627;29.424;-98.496;2023-02-26T10:27:12;49;42;
77515;PMS5003;66627;29.424;-98.496;2023-02-26T10:29:34;44;42;
77515;PMS5003;66627;29.424;-98.496;2023-02-26T10:32:01;47;46;
77515;PMS5003;66627;29.424;-98.496;2023-02-26T10:34:25;39;35;
77515;PMS5003;66627;29.424;-98.496;2023-02-26T10:36:51;46;40;
77515;PMS5003;66627;29.424;-98.496;2023-02-26T10:39:18;40;37;
77515;PMS5003;66627;29.424;-98.496;2023-02-26T10:41:41;49;42;
77515;PMS5003;66627;29.424;-98.496;2023-02-26T10:44:08;46;42;
77515;PMS5003;66627;29.424;-98.496;2023-02-26T10:46:33;48;42;
77515;PMS5003;66627;29.424;-98.496;2023-02-26T10:49:01;48;42;
77515;PMS5003;66627;29.424;-98.496;2023-02-26T10:51:24;40;37;
77515;PMS5003;66627;29.424;-98.496;2023-02-26T10:53:49;46;39;
77515;PMS5003;66627;29.424;-98.496;2023-02-26T10:56:14;45;42;
77515;PMS5003;66627;29.424;-98.496;2023-02-26T10:58:38;42;36;
77515;PMS5003;66627;29.424;-98.496;2023-02-26T11:01:06;37;35;
77515;PMS5003;66627;29.424;-98.496;2023-02-26T11:03:31;47;41;
77515;PMS5003;66627;29.424;-98.496;2023-02-26T11:05:56;44;38;
77515;PMS5003;66627;29.424;-98.496;2023-02-26T11:08:22;43;39;
77515;PMS5003;66627;29.424;-98.496;2023-02-26T11:10:47;39;36;
77515;PMS5003;66627;29.424;-98.496;2023-02-26T11:13:11;53;43;
77515;PMS5003;66627;29.424;-98.496;2023-02-26T11:15:36;45;42;
77515;PMS5003;66627;29.424;-98.496;2023-02-26T11:18:02;48;44;
77515;PMS5003;66627;29.424;-98.496;2023-02-26T11:20:30;51;41;
77515;PMS5003;66627;29.424;-98.496;2023-02-26T11:22:53;45;40;
77515;PMS5003;66627;29.424;-98.496;2023-02-26T11:25:21;60;49;
77515;PMS5003;66627;29.424;-98.496;2023-02-26T11:27:44;49;44;
77515;PMS5003;66627;29.424;-98.496;2023-02-26T11:30:14;52;43;
77515;PMS5003;66627;29.424;-98.496;2023-02-26T11:32:36;51;42;
77515;PMS5003;66627;29.424;-98.496;2023-02-26T11:35:00;46;41;
77515;PMS5003;66627;29.424;-98.496;2023-02-26T11:37:27;49;43;
77515;PMS5003;66627;29.424;-98.496;2023-02-26T11:39:53;55;51;
77515;PMS5003;66627;29.424;-98.496;2023-02-26T11:42:16;49;42;
77515;PMS5003;66627;29.424;-98.496;2023-02-26T11:44:42;41;36;
77515;PMS5003;66627;29.424;-98.496;2023-02-26T11:47:08;56;45;
77515;PMS5003;66627;29.424;-98.496;2023-02-26T11:49:32;56;46;
77515;PMS5003;66627;29.424;-98.496;2023-02-26T11:52:04;47;40;
77515;PMS5003;66627;29.424;-98.496;2023-02-26T11:54:25;51;48;
77515;PMS5003;66627;29.424;-98.496;2023-02-26T11:56:48;55;46;
77515;PMS5003;66627;29.424;-98.496;2023-02-26T11:59:17;50;47;
77515;PMS5003;66627;29.424;-98.496;2023-02-26T12:01:39;43;39;
77515;PMS5003;66627;29.424;-98.496;2023-02-26T12:04:04;52;49;
77515;PMS5003;66627;29.424;-98.496;2023-02-26T12:06:30;56;51;
77515;PMS5003;66627;29.424;-98.496;2023-02-26T12:08:56;51;44;
77515;PMS5003;66627;29.424;-98.496;2023-02-26T12:13:52;60;51;
77515;PMS5003;66627;29.424;-98.496;2023-02-26T12:16:14;41;37;
77515;PMS5003;66627;29.424;-98.496;2023-02-26T12:18:43;49;42;
77515;PMS5003;66627;29.424;-98.496;2023-02-26T12:21:08;48;45;
77515;PMS5003;66627;29.424;-98.496;2023-02-26T12:23:36;53;46;
77515;PMS5003;66627;29.424;-98.496;2023-02-26T12:28:26;61;54;
77515;PMS5003;66627;29.424;-98.496;2023-02-26T12:30:53;55;51;
77515;PMS5003;66627;29.424;-98.496;2023-02-26T12:33:16;46;42;
77515;PMS5003;66627;29.424;-98.496;2023-02-26T12:35:42;55;49;
77515;PMS5003;66627;29.424;-98.496;2023-02-26T12:38:08;59;51;
77515;PMS5003;66627;29.424;-98.496;2023-02-26T12:40:37;57;52;
77515;PMS5003;66627;29.424;-98.496;2023-02-26T12:42:55;46;44;
77515;PMS5003;66627;29.424;-98.496;2023-02-26T12:45:25;54;47;
77515;PMS5003;66627;29.424;-98.496;2023-02-26T12:47:49;54;50;
77515;PMS5003;66627;29.424;-98.496;2023-02-26T12:50:17;57;51;
77515;PMS5003;66627;29.424;-98.496;2023-02-26T12:52:41;59;43;
77515;PMS5003;66627;29.424;-98.496;2023-02-26T12:59:56;58;54;
77515;PMS5003;66627;29.424;-98.496;2023-02-26T13:07:18;57;52;
77515;PMS5003;66627;29.424;-98.496;2023-02-26T13:09:36;51;48;
77515;PMS5003;66627;29.424;-98.496;2023-02-26T13:12:03;53;51;
77515;PMS5003;66627;29.424;-98.496;2023-02-26T13:14:28;48;43;
77515;PMS5003;66627;29.424;-98.496;2023-02-26T13:16:51;52;46;
77515;PMS5003;66627;29.424;-98.496;2023-02-26T13:19:20;51;48;
77515;PMS5003;66627;29.424;-98.496;2023-02-26T13:21:42;55;48;
77515;PMS5003;66627;29.424;-98.496;2023-02-26T13:24:10;48;47;
77515;PMS5003;66627;29.424;-98.496;2023-02-26T13:26:33;55;49;
77515;PMS5003;66627;29.424;-98.496;2023-02-26T13:29:00;44;42;
77515;PMS5003;66627;29.424;-98.496;2023-02-26T13:31:29;49;48;
77515;PMS5003;66627;29.424;-98.496;2023-02-26T13:33:50;49;43;
77515;PMS5003;66627;29.424;-98.496;2023-02-26T13:36:15;52;50;
77515;PMS5003;66627;29.424;-98.496;2023-02-26T13:38:44;53;47;
77515;PMS5003;66627;29.424;-98.496;2023-02-26T13:41:08;53;46;
77515;PMS5003;66627;29.424;-98.496;2023-02-26T13:43:35;53;49;
77515;PMS5003;66627;29.424;-98.496;2023-02-26T13:46:01;53;48;
77515;PMS5003;66627;29.424;-98.496;2023-02-26T13:48:29;51;44;
77515;PMS5003;66627;29.424;-98.496;2023-02-26T13:50:52;51;45;
77515;PMS5003;66627;29.424;-98.496;2023-02-26T13:55:42;43;40;
77515;PMS5003;66627;29.424;-98.496;2023-02-26T14:00:32;60;48;
77515;PMS5003;66627;29.424;-98.496;2023-02-26T14:02:56;44;41;
77515;PMS5003;66627;29.424;-98.496;2023-02-26T14:07:47;50;46;
77515;PMS5003;66627;29.424;-98.496;2023-02-26T14:10:14;53;47;
77515;PMS5003;66627;29.424;-98.496;2023-02-26T14:12:37;45;42;
77515;PMS5003;66627;29.424;-98.496;2023-02-26T14:17:28;48;45;
77515;PMS5003;66627;29.424;-98.496;2023-02-26T14:22:19;42;41;
77515;PMS5003;66627;29.424;-98.496;2023-02-26T14:24:45;41;39;
77515;PMS5003;66627;29.424;-98.496;2023-02-26T14:29:37;53;47;
77515;PMS5003;66627;29.424;-98.496;2023-02-26T14:32:03;43;36;
77515;PMS5003;66627;29.424;-98.496;2023-02-26T14:34:26;45;45;
77515;PMS5003;66627;29.424;-98.496;2023-02-26T14:36:51;42;39;
77515;PMS5003;66627;29.424;-98.496;2023-02-26T14:39:22;45;39;
77515;PMS5003;66627;29.424;-98.496;2023-02-26T14:41:41;46;42;
77515;PMS5003;66627;29.424;-98.496;2023-02-26T14:44:10;59;46;
77515;PMS5003;66627;29.424;-98.496;2023-02-26T14:46:33;44;42;
77515;PMS5003;66627;29.424;-98.496;2023-02-26T14:48:58;39;37;
77515;PMS5003;66627;29.424;-98.496;2023-02-26T14:51:24;54;47;
77515;PMS5003;66627;29.424;-98.496;2023-02-26T14:56:15;41;36;
77515;PMS5003;66627;29.424;-98.496;2023-02-26T14:58:44;44;37;
77515;PMS5003;66627;29.424;-98.496;2023-02-26T15:01:07;43;36;
77515;PMS5003;66627;29.424;-98.496;2023-02-26T15:03:38;36;31;
77515;PMS5003;66627;29.424;-98.496;2023-02-26T15:06:01;36;32;
77515;PMS5003;66627;29.424;-98.496;2023-02-26T15:08:26;32;31;
77515;PMS5003;66627;29.424;-98.496;2023-02-26T15:10:52;39;34;
77515;PMS5003;66627;29.424;-98.496;2023-02-26T15:15:41;38;33;
77515;PMS5003;66627;29.424;-98.496;2023-02-26T15:18:08;31;29;
77515;PMS5003;66627;29.424;-98.496;2023-02-26T15:20:33;32;32;
77515;PMS5003;66627;29.424;-98.496;2023-02-26T15:23:02;39;36;
77515;PMS5003;66627;29.424;-98.496;2023-02-26T15:25:24;30;30;
77515;PMS5003;66627;29.424;-98.496;2023-02-26T15:27:46;31;29;
77515;PMS5003;66627;29.424;-98.496;2023-02-26T15:30:12;33;33;
77515;PMS5003;66627;29.424;-98.496;2023-02-26T15:32:37;32;27;
77515;PMS5003;66627;29.424;-98.496;2023-02-26T15:35:03;34;31;
77515;PMS5003;66627;29.424;-98.496;2023-02-26T15:37:28;37;30;
77515;PMS5003;66627;29.424;-98.496;2023-02-26T15:39:52;29;27;
77515;PMS5003;66627;29.424;-98.496;2023-02-26T15:42:17;32;30;
77515;PMS5003;66627;29.424;-98.496;2023-02-26T15:44:43;29;28;
77515;PMS5003;66627;29.424;-98.496;2023-02-26T15:47:08;27;27;
77515;PMS5003;66627;29.424;-98.496;2023-02-26T15:49:35;29;27;
77515;PMS5003;66627;29.424;-98.496;2023-02-26T15:52:00;31;27;
77515;PMS5003;66627;29.424;-98.496;2023-02-26T15:54:27;31;30;
77515;PMS5003;66627;29.424;-98.496;2023-02-26T15:56:50;24;23;
77515;PMS5003;66627;29.424;-98.496;2023-02-26T15:59:16;29;28;
77515;PMS5003;66627;29.424;-98.496;2023-02-26T16:01:41;32;30;
77515;PMS5003;66627;29.424;-98.496;2023-02-26T16:04:11;28;26;
77515;PMS5003;66627;29.424;-98.496;2023-02-26T16:06:33;33;29;
77515;PMS5003;66627;29.424;-98.496;2023-02-26T16:08:58;30;28;
77515;PMS5003;66627;29.424;-98.496;2023-02-26T16:11:23;23;23;
77515;PMS5003;66627;29.424;-98.496;2023-02-26T16:13:49;28;27;